Time,TemperatureF,DewpointF,PressureIn,WindDirection,WindDirectionDegrees,WindSpeedMPH,WindSpeedGustMPH,Humidity,HourlyPrecipIn,Conditions,Clouds,dailyrainin,SoftwareType,DateUTC
2013-02-12 00:00:00,24.8,20.4,30.20,NNE,14,0.0,0.0,83,0.00,,,0.00,VWS V14.00,2013-02-12 06:00:00,
2013-02-12 00:05:00,24.8,20.4,30.19,NNE,14,0.0,0.0,83,0.00,,,0.00,VWS V14.00,2013-02-12 06:05:00,
2013-02-12 00:10:00,24.8,20.4,30.19,NNE,14,0.0,0.0,83,0.00,,,0.00,VWS V14.00,2013-02-12 06:10:00,
2013-02-12 00:15:00,24.7,20.3,30.19,NNE,14,0.0,0.0,83,0.00,,,0.00,VWS V14.00,2013-02-12 06:15:00,
2013-02-12 00:20:00,24.7,20.3,30.19,NNE,14,0.0,0.0,83,0.00,,,0.00,VWS V14.00,2013-02-12 06:20:00,
2013-02-12 00:25:00,24.6,20.2,30.19,NNE,14,0.0,0.0,83,0.00,,,0.00,VWS V14.00,2013-02-12 06:25:00,
2013-02-12 00:30:00,24.6,20.2,30.19,NNE,14,0.0,0.0,83,0.00,,,0.00,VWS V14.00,2013-02-12 06:30:00,
2013-02-12 00:35:00,24.5,20.1,30.19,NNE,14,0.0,0.0,83,0.00,,,0.00,VWS V14.00,2013-02-12 06:35:00,
2013-02-12 00:39:00,24.5,20.1,30.19,NNE,14,0.0,0.0,83,0.00,,,0.00,VWS V14.00,2013-02-12 06:39:00,
2013-02-12 00:44:00,24.4,20.0,30.19,NNE,14,0.0,0.0,83,0.00,,,0.00,VWS V14.00,2013-02-12 06:44:00,
2013-02-12 00:49:00,24.3,19.9,30.19,NNE,14,0.0,0.0,83,0.00,,,0.00,VWS V14.00,2013-02-12 06:49:00,
2013-02-12 00:54:00,24.3,19.9,30.18,NNE,14,0.0,0.0,83,0.00,,,0.00,VWS V14.00,2013-02-12 06:54:00,
2013-02-12 00:59:00,24.2,19.8,30.19,NNE,14,0.0,0.0,83,0.00,,,0.00,VWS V14.00,2013-02-12 06:59:00,
2013-02-12 01:04:00,24.0,19.6,30.19,NNE,14,0.0,0.0,83,0.00,,,0.00,VWS V14.00,2013-02-12 07:04:00,
2013-02-12 01:09:00,23.9,19.5,30.19,NNE,14,0.0,0.0,83,0.00,,,0.00,VWS V14.00,2013-02-12 07:09:00,
2013-02-12 01:14:00,23.7,19.6,30.19,NNE,14,0.0,0.0,84,0.00,,,0.00,VWS V14.00,2013-02-12 07:14:00,
2013-02-12 01:19:00,23.6,19.5,30.19,NNE,14,0.0,0.0,84,0.00,,,0.00,VWS V14.00,2013-02-12 07:19:00,
2013-02-12 01:24:00,23.3,18.9,30.19,NNE,14,0.0,0.0,83,0.00,,,0.00,VWS V14.00,2013-02-12 07:24:00,
2013-02-12 01:29:00,23.1,19.0,30.19,NNE,14,0.0,0.0,84,0.00,,,0.00,VWS V14.00,2013-02-12 07:29:00,
2013-02-12 01:34:00,22.9,18.8,30.19,NNE,14,0.0,0.0,84,0.00,,,0.00,VWS V14.00,2013-02-12 07:34:00,
2013-02-12 01:39:00,22.7,18.6,30.19,NNE,14,0.0,0.0,84,0.00,,,0.00,VWS V14.00,2013-02-12 07:39:00,
2013-02-12 01:44:00,22.6,18.5,30.18,NNE,14,0.0,0.0,84,0.00,,,0.00,VWS V14.00,2013-02-12 07:44:00,
2013-02-12 01:49:00,22.5,18.4,30.18,NNE,14,0.0,0.0,84,0.00,,,0.00,VWS V14.00,2013-02-12 07:49:00,
2013-02-12 01:54:00,22.4,18.3,30.18,NNE,14,0.0,0.0,84,0.00,,,0.00,VWS V14.00,2013-02-12 07:54:00,
2013-02-12 01:59:00,22.4,18.6,30.18,NNE,14,0.0,0.0,85,0.00,,,0.00,VWS V14.00,2013-02-12 07:59:00,
2013-02-12 02:04:00,22.7,19.1,30.17,NNE,14,0.0,0.0,86,0.00,,,0.00,VWS V14.00,2013-02-12 08:04:00,
2013-02-12 02:09:00,22.9,19.4,30.17,NNE,14,0.0,0.0,86,0.00,,,0.00,VWS V14.00,2013-02-12 08:09:00,
2013-02-12 02:14:00,23.0,19.5,30.17,NNE,14,0.0,0.0,86,0.00,,,0.00,VWS V14.00,2013-02-12 08:14:00,
2013-02-12 02:19:00,23.0,19.5,30.17,NNE,14,0.0,0.0,86,0.00,,,0.00,VWS V14.00,2013-02-12 08:19:00,
2013-02-12 02:24:00,22.9,19.4,30.17,NNE,14,0.0,0.0,86,0.00,,,0.00,VWS V14.00,2013-02-12 08:24:00,
2013-02-12 02:29:00,22.8,19.2,30.17,NNE,14,0.0,0.0,86,0.00,,,0.00,VWS V14.00,2013-02-12 08:29:00,
2013-02-12 02:34:00,22.7,19.1,30.17,NNE,14,0.0,0.0,86,0.00,,,0.00,VWS V14.00,2013-02-12 08:34:00,
2013-02-12 02:39:00,22.7,19.1,30.17,NNE,14,0.0,0.0,86,0.00,,,0.00,VWS V14.00,2013-02-12 08:39:00,
2013-02-12 02:44:00,22.6,19.0,30.17,NNE,14,0.0,0.0,86,0.00,,,0.00,VWS V14.00,2013-02-12 08:44:00,
2013-02-12 02:49:00,22.5,19.0,30.16,NNE,14,0.0,0.0,86,0.00,,,0.00,VWS V14.00,2013-02-12 08:49:00,
2013-02-12 02:54:00,22.4,18.9,30.17,East,98,0.0,0.0,86,0.00,,,0.00,VWS V14.00,2013-02-12 08:54:00,
2013-02-12 02:59:00,22.2,18.7,30.17,East,98,0.0,0.0,86,0.00,,,0.00,VWS V14.00,2013-02-12 08:59:00,
2013-02-12 03:04:00,22.1,18.6,30.16,East,98,0.0,0.0,86,0.00,,,0.00,VWS V14.00,2013-02-12 09:04:00,
2013-02-12 03:09:00,22.1,18.6,30.16,East,98,0.0,0.0,86,0.00,,,0.00,VWS V14.00,2013-02-12 09:09:00,
2013-02-12 03:14:00,22.0,18.5,30.16,East,98,0.0,0.0,86,0.00,,,0.00,VWS V14.00,2013-02-12 09:14:00,
2013-02-12 03:19:00,21.9,18.4,30.16,East,98,0.0,0.0,86,0.00,,,0.00,VWS V14.00,2013-02-12 09:19:00,
2013-02-12 03:24:00,21.9,18.4,30.15,East,98,0.0,0.0,86,0.00,,,0.00,VWS V14.00,2013-02-12 09:24:00,
2013-02-12 03:29:00,21.8,18.3,30.15,East,98,0.0,0.0,86,0.00,,,0.00,VWS V14.00,2013-02-12 09:29:00,
2013-02-12 03:34:00,21.8,18.3,30.14,East,98,0.0,0.0,86,0.00,,,0.00,VWS V14.00,2013-02-12 09:34:00,
2013-02-12 03:39:00,22.0,18.7,30.14,East,98,0.0,0.0,87,0.00,,,0.00,VWS V14.00,2013-02-12 09:39:00,
2013-02-12 03:44:00,22.6,19.3,30.14,East,98,0.0,0.0,87,0.00,,,0.00,VWS V14.00,2013-02-12 09:44:00,
2013-02-12 03:49:00,22.9,19.9,30.14,East,98,0.0,0.0,88,0.00,,,0.00,VWS V14.00,2013-02-12 09:49:00,
2013-02-12 03:54:00,22.9,19.6,30.14,East,98,0.0,0.0,87,0.00,,,0.00,VWS V14.00,2013-02-12 09:54:00,
2013-02-12 03:59:00,22.8,19.5,30.14,East,98,0.0,0.0,87,0.00,,,0.00,VWS V14.00,2013-02-12 09:59:00,
2013-02-12 04:04:00,22.7,19.4,30.14,East,98,0.0,0.0,87,0.00,,,0.00,VWS V14.00,2013-02-12 10:04:00,
2013-02-12 04:09:00,22.6,19.3,30.14,East,98,0.0,0.0,87,0.00,,,0.00,VWS V14.00,2013-02-12 10:09:00,
2013-02-12 04:14:00,22.5,19.2,30.14,East,98,0.0,0.0,87,0.00,,,0.00,VWS V14.00,2013-02-12 10:14:00,
2013-02-12 04:19:00,22.5,19.2,30.14,East,98,0.0,0.0,87,0.00,,,0.00,VWS V14.00,2013-02-12 10:19:00,
2013-02-12 04:24:00,22.4,19.1,30.14,East,98,0.0,0.0,87,0.00,,,0.00,VWS V14.00,2013-02-12 10:24:00,
2013-02-12 04:29:00,22.1,18.6,30.15,East,98,0.0,0.0,86,0.00,,,0.00,VWS V14.00,2013-02-12 10:29:00,
2013-02-12 04:34:00,21.7,18.2,30.15,East,98,0.0,0.0,86,0.00,,,0.00,VWS V14.00,2013-02-12 10:34:00,
2013-02-12 04:39:00,21.5,18.0,30.15,East,98,0.0,0.0,86,0.00,,,0.00,VWS V14.00,2013-02-12 10:39:00,
2013-02-12 04:44:00,21.3,17.8,30.15,East,98,0.0,0.0,86,0.00,,,0.00,VWS V14.00,2013-02-12 10:44:00,
2013-02-12 04:49:00,21.1,17.6,30.15,East,98,0.0,0.0,86,0.00,,,0.00,VWS V14.00,2013-02-12 10:49:00,
2013-02-12 04:54:00,20.9,17.4,30.15,East,98,0.0,0.0,86,0.00,,,0.00,VWS V14.00,2013-02-12 10:54:00,
2013-02-12 04:59:00,20.8,17.3,30.15,East,98,0.0,0.0,86,0.00,,,0.00,VWS V14.00,2013-02-12 10:59:00,
2013-02-12 05:04:00,20.7,17.2,30.15,East,98,0.0,0.0,86,0.00,,,0.00,VWS V14.00,2013-02-12 11:04:00,
2013-02-12 05:09:00,20.6,17.1,30.15,East,98,0.0,0.0,86,0.00,,,0.00,VWS V14.00,2013-02-12 11:09:00,
2013-02-12 05:14:00,20.6,17.1,30.16,East,98,0.0,0.0,86,0.00,,,0.00,VWS V14.00,2013-02-12 11:14:00,
2013-02-12 05:19:00,20.5,17.0,30.15,East,98,0.0,0.0,86,0.00,,,0.00,VWS V14.00,2013-02-12 11:19:00,
2013-02-12 05:24:00,20.6,17.1,30.16,East,98,0.0,0.0,86,0.00,,,0.00,VWS V14.00,2013-02-12 11:24:00,
2013-02-12 05:29:00,20.6,17.1,30.16,East,98,0.0,0.0,86,0.00,,,0.00,VWS V14.00,2013-02-12 11:29:00,
2013-02-12 05:34:00,20.7,17.2,30.16,East,98,0.0,0.0,86,0.00,,,0.00,VWS V14.00,2013-02-12 11:34:00,
2013-02-12 05:39:00,20.8,17.3,30.16,East,99,0.0,0.0,86,0.00,,,0.00,VWS V14.00,2013-02-12 11:39:00,
2013-02-12 05:44:00,20.9,17.4,30.16,East,101,0.0,0.0,86,0.00,,,0.00,VWS V14.00,2013-02-12 11:44:00,
2013-02-12 05:49:00,20.9,17.4,30.16,ESE,103,0.0,0.0,86,0.00,,,0.00,VWS V14.00,2013-02-12 11:49:00,
2013-02-12 05:54:00,21.0,17.5,30.16,ESE,106,0.0,0.0,86,0.00,,,0.00,VWS V14.00,2013-02-12 11:54:00,
2013-02-12 05:59:00,21.1,17.6,30.16,ESE,107,0.0,0.0,86,0.00,,,0.00,VWS V14.00,2013-02-12 11:59:00,
2013-02-12 06:04:00,21.1,17.6,30.16,ESE,107,0.0,0.0,86,0.00,,,0.00,VWS V14.00,2013-02-12 12:04:00,
2013-02-12 06:08:00,21.0,17.5,30.16,ESE,107,0.0,0.0,86,0.00,,,0.00,VWS V14.00,2013-02-12 12:08:00,
2013-02-12 06:13:00,21.1,17.6,30.16,ESE,109,0.0,0.0,86,0.00,,,0.00,VWS V14.00,2013-02-12 12:13:00,
2013-02-12 06:18:00,21.1,17.3,30.15,ESE,109,0.0,0.0,85,0.00,,,0.00,VWS V14.00,2013-02-12 12:18:00,
2013-02-12 06:23:00,21.1,17.3,30.15,ESE,109,0.0,0.0,85,0.00,,,0.00,VWS V14.00,2013-02-12 12:23:00,
2013-02-12 06:28:00,21.1,17.3,30.15,ESE,109,0.0,0.0,85,0.00,,,0.00,VWS V14.00,2013-02-12 12:28:00,
2013-02-12 06:33:00,21.0,17.2,30.15,ESE,109,0.0,0.0,85,0.00,,,0.00,VWS V14.00,2013-02-12 12:33:00,
2013-02-12 06:38:00,21.1,17.3,30.14,ESE,109,0.0,0.0,85,0.00,,,0.00,VWS V14.00,2013-02-12 12:38:00,
2013-02-12 06:43:00,21.2,17.4,30.14,ESE,109,0.0,0.0,85,0.00,,,0.00,VWS V14.00,2013-02-12 12:43:00,
2013-02-12 06:48:00,21.3,17.5,30.14,SSW,213,0.0,0.0,85,0.00,,,0.00,VWS V14.00,2013-02-12 12:48:00,
2013-02-12 06:53:00,21.5,17.4,30.14,SSW,213,0.0,0.0,84,0.00,,,0.00,VWS V14.00,2013-02-12 12:53:00,
2013-02-12 06:58:00,21.6,17.5,30.14,SSW,213,0.0,0.0,84,0.00,,,0.00,VWS V14.00,2013-02-12 12:58:00,
2013-02-12 07:03:00,21.7,17.6,30.14,SSW,213,0.0,0.0,84,0.00,,,0.00,VWS V14.00,2013-02-12 13:03:00,
2013-02-12 07:08:00,21.7,17.6,30.14,SSW,213,0.0,0.0,84,0.00,,,0.00,VWS V14.00,2013-02-12 13:08:00,
2013-02-12 07:13:00,21.7,17.3,30.13,SSW,213,0.0,0.0,83,0.00,,,0.00,VWS V14.00,2013-02-12 13:13:00,
2013-02-12 07:18:00,21.6,17.2,30.13,SSW,213,0.0,0.0,83,0.00,,,0.00,VWS V14.00,2013-02-12 13:18:00,
2013-02-12 07:23:00,21.6,17.2,30.13,SSW,213,0.0,0.0,83,0.00,,,0.00,VWS V14.00,2013-02-12 13:23:00,
2013-02-12 07:28:00,21.7,17.3,30.12,SSW,213,0.0,0.0,83,0.00,,,0.00,VWS V14.00,2013-02-12 13:28:00,
2013-02-12 07:33:00,21.8,17.4,30.12,SSW,198,0.0,0.0,83,0.00,,,0.00,VWS V14.00,2013-02-12 13:33:00,
2013-02-12 07:38:00,21.9,17.5,30.12,SSW,207,0.0,0.0,83,0.00,,,0.00,VWS V14.00,2013-02-12 13:38:00,
2013-02-12 07:43:00,22.1,17.7,30.12,SW,229,0.0,0.0,83,0.00,,,0.00,VWS V14.00,2013-02-12 13:43:00,
2013-02-12 07:48:00,22.3,17.9,30.12,SW,227,0.0,0.0,83,0.00,,,0.00,VWS V14.00,2013-02-12 13:48:00,
2013-02-12 07:53:00,22.6,17.9,30.12,SSW,209,0.0,0.0,82,0.00,,,0.00,VWS V14.00,2013-02-12 13:53:00,
2013-02-12 07:58:00,22.7,18.0,30.11,SSW,194,0.0,0.0,82,0.00,,,0.00,VWS V14.00,2013-02-12 13:58:00,
2013-02-12 08:03:00,22.9,18.0,30.11,SSW,198,0.0,0.0,81,0.00,,,0.00,VWS V14.00,2013-02-12 14:03:00,
2013-02-12 08:08:00,23.1,18.1,30.11,SW,232,0.0,0.0,81,0.00,,,0.00,VWS V14.00,2013-02-12 14:08:00,
2013-02-12 08:13:00,23.5,18.5,30.11,WSW,248,0.0,0.0,81,0.00,,,0.00,VWS V14.00,2013-02-12 14:13:00,
2013-02-12 08:18:00,23.8,18.5,30.11,WSW,238,0.0,1.0,80,0.00,,,0.00,VWS V14.00,2013-02-12 14:18:00,
2013-02-12 08:23:00,24.2,18.6,30.12,SW,226,1.0,1.0,79,0.00,,,0.00,VWS V14.00,2013-02-12 14:23:00,
2013-02-12 08:28:00,24.7,19.1,30.11,WSW,244,0.0,1.0,79,0.00,,,0.00,VWS V14.00,2013-02-12 14:28:00,
2013-02-12 08:33:00,25.2,19.3,30.11,SW,234,0.0,1.0,78,0.00,,,0.00,VWS V14.00,2013-02-12 14:33:00,
2013-02-12 08:38:00,25.6,19.7,30.11,SSW,195,0.0,1.0,78,0.00,,,0.00,VWS V14.00,2013-02-12 14:38:00,
2013-02-12 08:43:00,26.2,20.3,30.11,SSW,211,1.0,2.0,78,0.00,,,0.00,VWS V14.00,2013-02-12 14:43:00,
2013-02-12 08:48:00,26.6,20.4,30.11,South,190,0.0,2.0,77,0.00,,,0.00,VWS V14.00,2013-02-12 14:48:00,
2013-02-12 08:53:00,27.0,20.8,30.11,SSW,200,0.0,2.0,77,0.00,,,0.00,VWS V14.00,2013-02-12 14:53:00,
2013-02-12 08:58:00,27.4,20.8,30.12,SW,225,0.0,2.0,76,0.00,,,0.00,VWS V14.00,2013-02-12 14:58:00,
2013-02-12 09:03:00,28.0,21.1,30.11,SSW,209,0.0,2.0,75,0.00,,,0.00,VWS V14.00,2013-02-12 15:03:00,
2013-02-12 09:08:00,28.6,21.7,30.11,SW,217,1.0,2.0,75,0.00,,,0.00,VWS V14.00,2013-02-12 15:08:00,
2013-02-12 09:13:00,29.1,22.2,30.11,SW,215,0.0,2.0,75,0.00,,,0.00,VWS V14.00,2013-02-12 15:13:00,
2013-02-12 09:18:00,29.7,22.4,30.11,SSW,198,0.0,2.0,74,0.00,,,0.00,VWS V14.00,2013-02-12 15:18:00,
2013-02-12 09:23:00,30.2,22.6,30.11,SW,215,0.0,2.0,73,0.00,,,0.00,VWS V14.00,2013-02-12 15:23:00,
2013-02-12 09:28:00,30.7,22.8,30.11,South,178,0.0,3.0,72,0.00,,,0.00,VWS V14.00,2013-02-12 15:28:00,
2013-02-12 09:33:00,31.0,23.0,30.11,SSW,205,0.0,5.0,72,0.00,,,0.00,VWS V14.00,2013-02-12 15:33:00,
2013-02-12 09:38:00,31.4,23.4,30.11,SW,229,2.0,3.0,72,0.00,,,0.00,VWS V14.00,2013-02-12 15:38:00,
2013-02-12 09:43:00,31.8,23.8,30.11,SW,223,1.0,10.0,72,0.00,,,0.00,VWS V14.00,2013-02-12 15:43:00,
2013-02-12 09:48:00,32.2,23.9,30.11,SSW,192,0.0,10.0,71,0.00,,,0.00,VWS V14.00,2013-02-12 15:48:00,
2013-02-12 09:53:00,32.5,23.5,30.10,WSW,239,9.0,13.0,69,0.00,,,0.00,VWS V14.00,2013-02-12 15:53:00,
2013-02-12 09:58:00,32.7,23.7,30.10,SSW,196,0.0,13.0,69,0.00,,,0.00,VWS V14.00,2013-02-12 15:58:00,
2013-02-12 10:03:00,33.0,24.0,30.10,SW,234,0.0,13.0,69,0.00,,,0.00,VWS V14.00,2013-02-12 16:03:00,
2013-02-12 10:08:00,33.4,24.0,30.10,SSW,201,1.0,2.0,68,0.00,,,0.00,VWS V14.00,2013-02-12 16:08:00,
2013-02-12 10:13:00,33.8,24.0,30.10,South,171,2.0,4.0,67,0.00,,,0.00,VWS V14.00,2013-02-12 16:13:00,
2013-02-12 10:18:00,34.3,24.1,30.11,WSW,248,0.0,10.0,66,0.00,,,0.00,VWS V14.00,2013-02-12 16:18:00,
2013-02-12 10:23:00,34.7,24.5,30.11,SSW,199,2.0,10.0,66,0.00,,,0.00,VWS V14.00,2013-02-12 16:23:00,
2013-02-12 10:28:00,35.0,24.1,30.11,SW,214,0.0,14.0,64,0.00,,,0.00,VWS V14.00,2013-02-12 16:28:00,
2013-02-12 10:33:00,35.5,24.5,30.11,WSW,240,8.0,14.0,64,0.00,,,0.00,VWS V14.00,2013-02-12 16:33:00,
2013-02-12 10:38:00,35.9,24.9,30.11,SW,226,4.0,4.0,64,0.00,,,0.00,VWS V14.00,2013-02-12 16:38:00,
2013-02-12 10:43:00,36.3,24.9,30.11,WSW,246,5.0,14.0,63,0.00,,,0.00,VWS V14.00,2013-02-12 16:43:00,
2013-02-12 10:48:00,36.6,24.8,30.11,West,268,12.0,14.0,62,0.00,,,0.00,VWS V14.00,2013-02-12 16:48:00,
2013-02-12 10:53:00,37.1,24.9,30.11,SW,236,2.0,14.0,61,0.00,,,0.00,VWS V14.00,2013-02-12 16:53:00,
2013-02-12 10:58:00,37.7,25.9,30.11,SW,227,0.0,14.0,62,0.00,,,0.00,VWS V14.00,2013-02-12 16:58:00,
2013-02-12 11:03:00,38.2,26.0,30.11,WNW,296,1.0,14.0,61,0.00,,,0.00,VWS V14.00,2013-02-12 17:03:00,
2013-02-12 11:08:00,38.5,25.8,30.11,SW,220,4.0,6.0,60,0.00,,,0.00,VWS V14.00,2013-02-12 17:08:00,
2013-02-12 11:13:00,38.7,26.0,30.11,SW,223,12.0,13.0,60,0.00,,,0.00,VWS V14.00,2013-02-12 17:13:00,
2013-02-12 11:18:00,38.7,25.2,30.11,SW,227,1.0,16.0,58,0.00,,,0.00,VWS V14.00,2013-02-12 17:18:00,
2013-02-12 11:23:00,39.1,26.8,30.11,SW,236,1.0,16.0,61,0.00,,,0.00,VWS V14.00,2013-02-12 17:23:00,
2013-02-12 11:28:00,39.4,25.5,30.11,WSW,257,4.0,18.0,57,0.00,,,0.00,VWS V14.00,2013-02-12 17:28:00,
2013-02-12 11:33:00,39.6,25.6,30.11,SW,215,2.0,18.0,57,0.00,,,0.00,VWS V14.00,2013-02-12 17:33:00,
2013-02-12 11:38:00,39.7,26.1,30.11,SW,227,2.0,15.0,58,0.00,,,0.00,VWS V14.00,2013-02-12 17:38:00,
2013-02-12 11:43:00,40.0,26.4,30.11,WSW,250,0.0,15.0,58,0.00,,,0.00,VWS V14.00,2013-02-12 17:43:00,
2013-02-12 11:47:00,40.7,27.5,30.10,West,272,3.0,15.0,59,0.00,,,0.00,VWS V14.00,2013-02-12 17:47:00,
2013-02-12 11:52:00,41.0,27.0,30.10,SSW,202,3.0,15.0,57,0.00,,,0.00,VWS V14.00,2013-02-12 17:52:00,
2013-02-12 11:57:00,41.5,27.0,30.10,WSW,242,2.0,15.0,56,0.00,,,0.00,VWS V14.00,2013-02-12 17:57:00,
2013-02-12 12:02:00,41.7,26.3,30.10,SW,228,6.0,15.0,54,0.00,,,0.00,VWS V14.00,2013-02-12 18:02:00,
2013-02-12 12:07:00,42.0,26.6,30.10,NW,304,0.0,13.0,54,0.00,,,0.00,VWS V14.00,2013-02-12 18:07:00,
2013-02-12 12:12:00,42.4,27.0,30.09,SW,214,3.0,15.0,54,0.00,,,0.00,VWS V14.00,2013-02-12 18:12:00,
2013-02-12 12:17:00,42.8,26.9,30.09,WSW,240,3.0,15.0,53,0.00,,,0.00,VWS V14.00,2013-02-12 18:17:00,
2013-02-12 12:22:00,43.1,27.1,30.08,WSW,237,2.0,17.0,53,0.00,,,0.00,VWS V14.00,2013-02-12 18:22:00,
2013-02-12 12:27:00,43.5,27.1,30.08,WSW,239,2.0,17.0,52,0.00,,,0.00,VWS V14.00,2013-02-12 18:27:00,
2013-02-12 12:32:00,44.0,27.5,30.07,WSW,252,6.0,17.0,52,0.00,,,0.00,VWS V14.00,2013-02-12 18:32:00,
2013-02-12 12:37:00,44.3,27.3,30.07,WSW,237,6.0,7.0,51,0.00,,,0.00,VWS V14.00,2013-02-12 18:37:00,
2013-02-12 12:42:00,44.4,27.4,30.06,West,276,1.0,17.0,51,0.00,,,0.00,VWS V14.00,2013-02-12 18:42:00,
2013-02-12 12:47:00,44.5,27.0,30.05,WSW,250,1.0,17.0,50,0.00,,,0.00,VWS V14.00,2013-02-12 18:47:00,
2013-02-12 12:52:00,44.8,27.3,30.05,WNW,285,10.0,17.0,50,0.00,,,0.00,VWS V14.00,2013-02-12 18:52:00,
2013-02-12 12:57:00,45.0,27.0,30.05,South,181,0.0,17.0,49,0.00,,,0.00,VWS V14.00,2013-02-12 18:57:00,
2013-02-12 13:02:00,45.2,27.2,30.04,SW,236,7.0,17.0,49,0.00,,,0.00,VWS V14.00,2013-02-12 19:02:00,
2013-02-12 13:07:00,45.4,26.4,30.04,WSW,253,6.0,9.0,47,0.00,,,0.00,VWS V14.00,2013-02-12 19:07:00,
2013-02-12 13:12:00,45.5,27.0,30.04,WSW,246,3.0,9.0,48,0.00,,,0.00,VWS V14.00,2013-02-12 19:12:00,
2013-02-12 13:17:00,45.7,26.6,30.04,SSW,210,2.0,13.0,47,0.00,,,0.00,VWS V14.00,2013-02-12 19:17:00,
2013-02-12 13:22:00,46.1,27.5,30.03,SSW,198,3.0,13.0,48,0.00,,,0.00,VWS V14.00,2013-02-12 19:22:00,
2013-02-12 13:27:00,46.5,26.9,30.03,South,190,3.0,13.0,46,0.00,,,0.00,VWS V14.00,2013-02-12 19:27:00,
2013-02-12 13:32:00,46.8,26.0,30.03,SW,223,5.0,13.0,44,0.00,,,0.00,VWS V14.00,2013-02-12 19:32:00,
2013-02-12 13:37:00,46.8,26.0,30.02,West,268,7.0,7.0,44,0.00,,,0.00,VWS V14.00,2013-02-12 19:37:00,
2013-02-12 13:42:00,46.9,25.6,30.02,WSW,241,2.0,10.0,43,0.00,,,0.00,VWS V14.00,2013-02-12 19:42:00,
2013-02-12 13:47:00,47.0,25.7,30.02,West,263,1.0,17.0,43,0.00,,,0.00,VWS V14.00,2013-02-12 19:47:00,
2013-02-12 13:52:00,47.2,25.9,30.02,West,277,7.0,17.0,43,0.00,,,0.00,VWS V14.00,2013-02-12 19:52:00,
2013-02-12 13:57:00,47.2,25.3,30.02,West,265,13.0,19.0,42,0.00,,,0.00,VWS V14.00,2013-02-12 19:57:00,
2013-02-12 14:02:00,47.0,25.1,30.01,West,268,4.0,19.0,42,0.00,,,0.00,VWS V14.00,2013-02-12 20:02:00,
2013-02-12 14:07:00,47.0,25.1,30.02,WSW,257,4.0,15.0,42,0.00,,,0.00,VWS V14.00,2013-02-12 20:07:00,
2013-02-12 14:12:00,47.2,26.4,30.01,WNW,296,2.0,16.0,44,0.00,,,0.00,VWS V14.00,2013-02-12 20:12:00,
2013-02-12 14:17:00,47.4,24.9,30.01,West,271,5.0,16.0,41,0.00,,,0.00,VWS V14.00,2013-02-12 20:17:00,
2013-02-12 14:22:00,47.4,24.3,30.01,West,276,3.0,16.0,40,0.00,,,0.00,VWS V14.00,2013-02-12 20:22:00,
2013-02-12 14:27:00,47.2,24.7,30.00,West,273,0.0,16.0,41,0.00,,,0.00,VWS V14.00,2013-02-12 20:27:00,
2013-02-12 14:32:00,47.4,24.3,30.00,West,269,5.0,19.0,40,0.00,,,0.00,VWS V14.00,2013-02-12 20:32:00,
2013-02-12 14:37:00,47.3,24.2,30.00,SW,236,5.0,18.0,40,0.00,,,0.00,VWS V14.00,2013-02-12 20:37:00,
2013-02-12 14:42:00,47.3,24.2,30.00,WSW,254,1.0,18.0,40,0.00,,,0.00,VWS V14.00,2013-02-12 20:42:00,
2013-02-12 14:47:00,47.4,24.3,30.00,SW,227,12.0,18.0,40,0.00,,,0.00,VWS V14.00,2013-02-12 20:47:00,
2013-02-12 14:52:00,47.3,24.2,29.99,West,269,16.0,18.0,40,0.00,,,0.00,VWS V14.00,2013-02-12 20:52:00,
2013-02-12 14:57:00,47.3,24.2,29.99,WSW,246,5.0,18.0,40,0.00,,,0.00,VWS V14.00,2013-02-12 20:57:00,
2013-02-12 15:02:00,47.6,24.5,29.99,West,262,0.0,18.0,40,0.00,,,0.00,VWS V14.00,2013-02-12 21:02:00,
2013-02-12 15:07:00,47.8,23.4,29.98,West,263,3.0,16.0,38,0.00,,,0.00,VWS V14.00,2013-02-12 21:07:00,
2013-02-12 15:12:00,47.5,23.2,29.98,West,259,6.0,19.0,38,0.00,,,0.00,VWS V14.00,2013-02-12 21:12:00,
2013-02-12 15:17:00,47.4,23.7,29.98,West,281,11.0,19.0,39,0.00,,,0.00,VWS V14.00,2013-02-12 21:17:00,
2013-02-12 15:22:00,47.5,23.2,29.98,WSW,241,4.0,19.0,38,0.00,,,0.00,VWS V14.00,2013-02-12 21:22:00,
2013-02-12 15:27:00,47.6,23.3,29.98,WSW,251,3.0,19.0,38,0.00,,,0.00,VWS V14.00,2013-02-12 21:27:00,
2013-02-12 15:32:00,47.9,22.9,29.98,West,259,2.0,19.0,37,0.00,,,0.00,VWS V14.00,2013-02-12 21:32:00,
2013-02-12 15:37:00,47.9,22.9,29.98,West,265,6.0,14.0,37,0.00,,,0.00,VWS V14.00,2013-02-12 21:37:00,
2013-02-12 15:42:00,47.9,22.9,29.98,WSW,241,4.0,14.0,37,0.00,,,0.00,VWS V14.00,2013-02-12 21:42:00,
2013-02-12 15:47:00,47.9,22.9,29.98,West,261,3.0,14.0,37,0.00,,,0.00,VWS V14.00,2013-02-12 21:47:00,
2013-02-12 15:52:00,47.9,24.1,29.98,West,259,3.0,16.0,39,0.00,,,0.00,VWS V14.00,2013-02-12 21:52:00,
2013-02-12 15:57:00,47.9,22.9,29.98,WSW,237,3.0,16.0,37,0.00,,,0.00,VWS V14.00,2013-02-12 21:57:00,
2013-02-12 16:02:00,47.9,22.9,29.98,WSW,256,3.0,16.0,37,0.00,,,0.00,VWS V14.00,2013-02-12 22:02:00,
2013-02-12 16:07:00,47.8,22.8,29.98,WSW,246,5.0,11.0,37,0.00,,,0.00,VWS V14.00,2013-02-12 22:07:00,
2013-02-12 16:12:00,47.7,23.4,29.98,WNW,284,5.0,11.0,38,0.00,,,0.00,VWS V14.00,2013-02-12 22:12:00,
2013-02-12 16:17:00,47.7,23.4,29.97,WSW,249,2.0,11.0,38,0.00,,,0.00,VWS V14.00,2013-02-12 22:17:00,
2013-02-12 16:22:00,47.7,23.4,29.97,SW,236,2.0,11.0,38,0.00,,,0.00,VWS V14.00,2013-02-12 22:22:00,
2013-02-12 16:27:00,47.7,23.4,29.97,West,279,1.0,11.0,38,0.00,,,0.00,VWS V14.00,2013-02-12 22:27:00,
2013-02-12 16:32:00,47.6,23.3,29.97,West,263,1.0,11.0,38,0.00,,,0.00,VWS V14.00,2013-02-12 22:32:00,
2013-02-12 16:37:00,47.6,23.9,29.97,West,269,1.0,2.0,39,0.00,,,0.00,VWS V14.00,2013-02-12 22:37:00,
2013-02-12 16:42:00,47.6,23.3,29.97,West,260,1.0,5.0,38,0.00,,,0.00,VWS V14.00,2013-02-12 22:42:00,
2013-02-12 16:47:00,47.6,22.0,29.97,West,267,0.0,6.0,36,0.00,,,0.00,VWS V14.00,2013-02-12 22:47:00,
2013-02-12 16:52:00,47.6,22.0,29.97,West,281,4.0,6.0,36,0.00,,,0.00,VWS V14.00,2013-02-12 22:52:00,
2013-02-12 16:57:00,47.8,24.1,29.97,West,265,2.0,6.0,39,0.00,,,0.00,VWS V14.00,2013-02-12 22:57:00,
2013-02-12 17:02:00,47.8,22.2,29.97,WNW,286,1.0,7.0,36,0.00,,,0.00,VWS V14.00,2013-02-12 23:02:00,
2013-02-12 17:07:00,47.6,22.0,29.96,West,268,2.0,3.0,36,0.00,,,0.00,VWS V14.00,2013-02-12 23:07:00,
2013-02-12 17:12:00,47.5,22.5,29.96,WSW,241,1.0,3.0,37,0.00,,,0.00,VWS V14.00,2013-02-12 23:12:00,
2013-02-12 17:17:00,47.4,23.1,29.96,West,264,2.0,4.0,38,0.00,,,0.00,VWS V14.00,2013-02-12 23:17:00,
2013-02-12 17:22:00,47.2,22.3,29.97,West,268,0.0,4.0,37,0.00,,,0.00,VWS V14.00,2013-02-12 23:22:00,
2013-02-12 17:27:00,47.0,22.1,29.97,WNW,290,0.0,4.0,37,0.00,,,0.00,VWS V14.00,2013-02-12 23:27:00,
2013-02-12 17:31:00,46.9,24.5,29.97,WNW,297,1.0,4.0,41,0.00,,,0.00,VWS V14.00,2013-02-12 23:31:00,
2013-02-12 17:36:00,46.7,20.5,29.97,West,275,1.0,5.0,35,0.00,,,0.00,VWS V14.00,2013-02-12 23:36:00,
2013-02-12 17:41:00,46.1,19.3,29.97,WNW,300,0.0,5.0,34,0.00,,,0.00,VWS V14.00,2013-02-12 23:41:00,
2013-02-12 17:46:00,45.5,19.5,29.97,NW,307,0.0,5.0,35,0.00,,,0.00,VWS V14.00,2013-02-12 23:46:00,
2013-02-12 17:51:00,45.0,19.0,29.97,WNW,288,0.0,5.0,35,0.00,,,0.00,VWS V14.00,2013-02-12 23:51:00,
2013-02-12 17:56:00,44.3,19.7,29.97,West,281,1.0,5.0,37,0.00,,,0.00,VWS V14.00,2013-02-12 23:56:00,
2013-02-12 18:01:00,44.1,23.6,29.97,West,273,0.0,5.0,44,0.00,,,0.00,VWS V14.00,2013-02-13 00:01:00,
2013-02-12 18:06:00,43.6,20.3,29.97,WNW,298,0.0,2.0,39,0.00,,,0.00,VWS V14.00,2013-02-13 00:06:00,
2013-02-12 18:11:00,43.0,20.4,29.97,WNW,284,0.0,2.0,40,0.00,,,0.00,VWS V14.00,2013-02-13 00:11:00,
2013-02-12 18:16:00,42.4,19.8,29.97,WNW,288,1.0,2.0,40,0.00,,,0.00,VWS V14.00,2013-02-13 00:16:00,
2013-02-12 18:21:00,41.8,19.8,29.97,WNW,283,2.0,2.0,41,0.00,,,0.00,VWS V14.00,2013-02-13 00:21:00,
2013-02-12 18:26:00,41.5,25.7,29.97,WNW,292,1.0,2.0,53,0.00,,,0.00,VWS V14.00,2013-02-13 00:26:00,
2013-02-12 18:31:00,41.5,21.8,29.97,WNW,294,1.0,2.0,45,0.00,,,0.00,VWS V14.00,2013-02-13 00:31:00,
2013-02-12 18:36:00,41.1,20.3,29.97,WNW,295,1.0,1.0,43,0.00,,,0.00,VWS V14.00,2013-02-13 00:36:00,
2013-02-12 18:41:00,40.6,20.4,29.97,WNW,295,0.0,1.0,44,0.00,,,0.00,VWS V14.00,2013-02-13 00:41:00,
2013-02-12 18:46:00,40.2,20.0,29.97,WNW,295,0.0,1.0,44,0.00,,,0.00,VWS V14.00,2013-02-13 00:46:00,
2013-02-12 18:51:00,40.0,23.8,29.97,WNW,294,0.0,1.0,52,0.00,,,0.00,VWS V14.00,2013-02-13 00:51:00,
2013-02-12 18:56:00,39.9,20.8,29.97,WNW,294,0.0,1.0,46,0.00,,,0.00,VWS V14.00,2013-02-13 00:56:00,
2013-02-12 19:01:00,39.6,20.0,29.97,WNW,292,0.0,1.0,45,0.00,,,0.00,VWS V14.00,2013-02-13 01:01:00,
2013-02-12 19:06:00,39.3,20.3,29.98,WNW,292,0.0,0.0,46,0.00,,,0.00,VWS V14.00,2013-02-13 01:06:00,
2013-02-12 19:11:00,38.9,19.9,29.98,WNW,293,0.0,0.0,46,0.00,,,0.00,VWS V14.00,2013-02-13 01:11:00,
2013-02-12 19:16:00,38.7,21.2,29.98,WNW,293,0.0,0.0,49,0.00,,,0.00,VWS V14.00,2013-02-13 01:16:00,
2013-02-12 19:21:00,38.4,19.9,29.98,WNW,292,0.0,0.0,47,0.00,,,0.00,VWS V14.00,2013-02-13 01:21:00,
2013-02-12 19:26:00,38.1,20.2,29.98,WSW,249,0.0,0.0,48,0.00,,,0.00,VWS V14.00,2013-02-13 01:26:00,
2013-02-12 19:31:00,37.8,19.9,29.98,WSW,250,0.0,1.0,48,0.00,,,0.00,VWS V14.00,2013-02-13 01:31:00,
2013-02-12 19:36:00,37.5,20.1,29.98,West,273,0.0,1.0,49,0.00,,,0.00,VWS V14.00,2013-02-13 01:36:00,
2013-02-12 19:41:00,37.3,23.1,29.98,West,275,0.0,2.0,56,0.00,,,0.00,VWS V14.00,2013-02-13 01:41:00,
2013-02-12 19:46:00,37.3,21.3,29.98,West,281,0.0,2.0,52,0.00,,,0.00,VWS V14.00,2013-02-13 01:46:00,
2013-02-12 19:51:00,37.0,21.0,29.98,WNW,284,0.0,2.0,52,0.00,,,0.00,VWS V14.00,2013-02-13 01:51:00,
2013-02-12 19:56:00,36.7,20.8,29.98,WNW,283,0.0,2.0,52,0.00,,,0.00,VWS V14.00,2013-02-13 01:56:00,
2013-02-12 20:01:00,36.4,20.9,29.99,WNW,298,0.0,2.0,53,0.00,,,0.00,VWS V14.00,2013-02-13 02:01:00,
2013-02-12 20:06:00,36.8,27.6,29.99,WNW,285,0.0,1.0,69,0.00,,,0.00,VWS V14.00,2013-02-13 02:06:00,
2013-02-12 20:11:00,36.7,22.5,29.99,WNW,295,1.0,2.0,56,0.00,,,0.00,VWS V14.00,2013-02-13 02:11:00,
2013-02-12 20:16:00,36.3,21.7,29.99,WNW,292,0.0,2.0,55,0.00,,,0.00,VWS V14.00,2013-02-13 02:16:00,
2013-02-12 20:21:00,35.7,21.1,29.99,WNW,283,0.0,2.0,55,0.00,,,0.00,VWS V14.00,2013-02-13 02:21:00,
2013-02-12 20:26:00,35.6,24.3,29.99,WNW,295,1.0,2.0,63,0.00,,,0.00,VWS V14.00,2013-02-13 02:26:00,
2013-02-12 20:31:00,35.8,24.1,29.99,WNW,296,0.0,2.0,62,0.00,,,0.00,VWS V14.00,2013-02-13 02:31:00,
2013-02-12 20:36:00,35.5,22.2,29.99,WNW,296,0.0,0.0,58,0.00,,,0.00,VWS V14.00,2013-02-13 02:36:00,
2013-02-12 20:41:00,35.2,21.5,29.99,WNW,295,0.0,0.0,57,0.00,,,0.00,VWS V14.00,2013-02-13 02:41:00,
2013-02-12 20:46:00,34.7,21.5,29.99,WNW,294,0.0,0.0,58,0.00,,,0.00,VWS V14.00,2013-02-13 02:46:00,
2013-02-12 20:51:00,34.8,25.0,29.99,WNW,294,0.0,0.0,67,0.00,,,0.00,VWS V14.00,2013-02-13 02:51:00,
2013-02-12 20:56:00,34.5,22.5,29.99,WNW,296,0.0,0.0,61,0.00,,,0.00,VWS V14.00,2013-02-13 02:56:00,
2013-02-12 21:01:00,34.4,22.0,29.99,WNW,292,0.0,0.0,60,0.00,,,0.00,VWS V14.00,2013-02-13 03:01:00,
2013-02-12 21:06:00,34.0,22.0,29.99,WNW,292,0.0,0.0,61,0.00,,,0.00,VWS V14.00,2013-02-13 03:06:00,
2013-02-12 21:11:00,33.8,23.7,29.99,WNW,287,0.0,1.0,66,0.00,,,0.00,VWS V14.00,2013-02-13 03:11:00,
2013-02-12 21:16:00,33.5,22.6,29.99,West,281,0.0,1.0,64,0.00,,,0.00,VWS V14.00,2013-02-13 03:16:00,
2013-02-12 21:21:00,33.2,22.0,29.99,West,281,0.0,1.0,63,0.00,,,0.00,VWS V14.00,2013-02-13 03:21:00,
2013-02-12 21:26:00,32.9,22.1,29.99,West,281,0.0,1.0,64,0.00,,,0.00,VWS V14.00,2013-02-13 03:26:00,
2013-02-12 21:31:00,32.7,23.0,29.99,WNW,282,0.0,1.0,67,0.00,,,0.00,VWS V14.00,2013-02-13 03:31:00,
2013-02-12 21:36:00,32.6,23.6,29.98,West,271,0.0,0.0,69,0.00,,,0.00,VWS V14.00,2013-02-13 03:36:00,
2013-02-12 21:41:00,32.3,22.6,29.99,West,275,0.0,0.0,67,0.00,,,0.00,VWS V14.00,2013-02-13 03:41:00,
2013-02-12 21:46:00,32.0,22.3,29.98,West,275,0.0,0.0,67,0.00,,,0.00,VWS V14.00,2013-02-13 03:46:00,
2013-02-12 21:51:00,31.8,22.1,29.98,West,273,0.0,0.0,67,0.00,,,0.00,VWS V14.00,2013-02-13 03:51:00,
2013-02-12 21:56:00,31.6,22.3,29.98,West,273,0.0,0.0,68,0.00,,,0.00,VWS V14.00,2013-02-13 03:56:00,
2013-02-12 22:01:00,31.6,23.3,29.98,West,273,0.0,0.0,71,0.00,,,0.00,VWS V14.00,2013-02-13 04:01:00,
2013-02-12 22:06:00,31.5,22.9,29.98,West,273,0.0,0.0,70,0.00,,,0.00,VWS V14.00,2013-02-13 04:06:00,
2013-02-12 22:11:00,31.2,22.2,29.98,West,273,0.0,0.0,69,0.00,,,0.00,VWS V14.00,2013-02-13 04:11:00,
2013-02-12 22:16:00,31.0,22.4,29.98,West,273,0.0,0.0,70,0.00,,,0.00,VWS V14.00,2013-02-13 04:16:00,
2013-02-12 22:21:00,30.9,22.3,29.98,West,273,0.0,0.0,70,0.00,,,0.00,VWS V14.00,2013-02-13 04:21:00,
2013-02-12 22:26:00,30.8,22.2,29.98,West,273,0.0,0.0,70,0.00,,,0.00,VWS V14.00,2013-02-13 04:26:00,
2013-02-12 22:31:00,30.6,22.3,29.98,West,273,0.0,0.0,71,0.00,,,0.00,VWS V14.00,2013-02-13 04:31:00,
2013-02-12 22:36:00,30.5,22.2,29.97,West,273,0.0,0.0,71,0.00,,,0.00,VWS V14.00,2013-02-13 04:36:00,
2013-02-12 22:41:00,30.4,22.1,29.97,West,273,0.0,0.0,71,0.00,,,0.00,VWS V14.00,2013-02-13 04:41:00,
2013-02-12 22:46:00,30.3,22.4,29.97,West,273,0.0,0.0,72,0.00,,,0.00,VWS V14.00,2013-02-13 04:46:00,
2013-02-12 22:51:00,30.2,22.3,29.97,West,273,0.0,0.0,72,0.00,,,0.00,VWS V14.00,2013-02-13 04:51:00,
2013-02-12 22:56:00,30.1,22.2,29.97,West,273,0.0,0.0,72,0.00,,,0.00,VWS V14.00,2013-02-13 04:56:00,
2013-02-12 23:00:00,30.0,22.4,29.97,West,273,0.0,0.0,73,0.00,,,0.00,VWS V14.00,2013-02-13 05:00:00,
2013-02-12 23:01:00,30.0,22.4,29.97,West,273,0.0,0.0,73,0.00,,,0.00,VWS V14.00,2013-02-13 05:01:00,
2013-02-12 23:06:00,30.0,22.7,29.97,West,273,0.0,0.0,74,0.00,,,0.00,VWS V14.00,2013-02-13 05:06:00,
2013-02-12 23:11:00,30.0,22.4,29.97,West,273,0.0,0.0,73,0.00,,,0.00,VWS V14.00,2013-02-13 05:11:00,
2013-02-12 23:16:00,30.0,22.4,29.97,West,273,0.0,0.0,73,0.00,,,0.00,VWS V14.00,2013-02-13 05:16:00,
2013-02-12 23:21:00,30.0,22.4,29.97,West,272,0.0,0.0,73,0.00,,,0.00,VWS V14.00,2013-02-13 05:21:00,
2013-02-12 23:26:00,30.1,22.8,29.97,West,273,0.0,0.0,74,0.00,,,0.00,VWS V14.00,2013-02-13 05:26:00,
2013-02-12 23:31:00,30.0,22.4,29.97,West,273,0.0,0.0,73,0.00,,,0.00,VWS V14.00,2013-02-13 05:31:00,
2013-02-12 23:36:00,30.0,22.4,29.97,West,273,0.0,0.0,73,0.00,,,0.00,VWS V14.00,2013-02-13 05:36:00,
2013-02-12 23:41:00,29.9,22.6,29.96,West,272,0.0,0.0,74,0.00,,,0.00,VWS V14.00,2013-02-13 05:41:00,
2013-02-12 23:46:00,29.9,22.6,29.96,West,271,0.0,0.0,74,0.00,,,0.00,VWS V14.00,2013-02-13 05:46:00,
2013-02-12 23:51:00,29.8,22.5,29.96,West,271,0.0,0.0,74,0.00,,,0.00,VWS V14.00,2013-02-13 05:51:00,
2013-02-12 23:56:00,29.7,22.4,29.96,West,271,0.0,0.0,74,0.00,,,0.00,VWS V14.00,2013-02-13 05:56:00,